Time;durP1;ratioP1;P1;durP2;ratioP2;P2;SDS_P1;SDS_P2;PMS_P1;PMS_P2;Temp;Humidity;BMP_temperature;BMP_pressure;BME280_temperature;BME280_humidity;BME280_pressure;Samples;Min_cycle;Max_cycle;Signal;HPM_P1;HPM_P2
2021/11/28 00:01:43;;;;;;;6.70;1.85;;;9.90;99.90;;;;;;6158226;23;20069;-78
2021/11/28 00:04:09;;;;;;;6.82;2.00;;;9.90;99.90;;;;;;6183547;23;20009;-78
2021/11/28 00:06:37;;;;;;;8.02;2.40;;;9.90;99.90;;;;;;6184336;23;19997;-78
2021/11/28 00:09:29;;;;;;;3.08;1.65;;;10.00;99.90;;;;;;6158056;23;20011;-78
2021/11/28 00:12:09;;;;;;;4.25;1.50;;;10.00;99.90;;;;;;6182233;23;20002;-80
2021/11/28 00:14:37;;;;;;;5.75;1.80;;;10.10;99.90;;;;;;6182251;23;20009;-79
2021/11/28 00:17:03;;;;;;;4.40;1.73;;;10.10;99.90;;;;;;6183520;23;20075;-76
2021/11/28 00:19:29;;;;;;;5.80;2.63;;;10.10;99.90;;;;;;6183732;23;20001;-77
2021/11/28 00:21:55;;;;;;;6.40;3.22;;;10.10;99.90;;;;;;6184381;23;20005;-76
2021/11/28 00:24:20;;;;;;;6.10;1.80;;;10.10;99.90;;;;;;6184136;23;20008;-77
2021/11/28 00:26:48;;;;;;;9.85;3.42;;;10.10;99.90;;;;;;6184266;23;20005;-79
2021/11/28 00:29:13;;;;;;;2.63;1.60;;;10.00;99.90;;;;;;6184324;23;20001;-78
2021/11/28 00:31:40;;;;;;;3.85;0.80;;;9.80;99.90;;;;;;6184311;23;20506;-78
2021/11/28 00:34:06;;;;;;;4.88;1.08;;;9.50;99.90;;;;;;6183846;23;20005;-78
2021/11/28 00:36:31;;;;;;;3.03;0.95;;;9.40;99.90;;;;;;6184211;23;20072;-79
2021/11/28 00:38:57;;;;;;;7.35;1.90;;;9.30;99.90;;;;;;6184178;23;19997;-79
2021/11/28 00:41:23;;;;;;;7.70;2.83;;;9.30;99.90;;;;;;6184520;23;20016;-79
2021/11/28 00:43:48;;;;;;;5.45;1.27;;;9.40;99.90;;;;;;6184157;23;20020;-78
2021/11/28 00:46:14;;;;;;;2.70;1.20;;;9.40;99.90;;;;;;6157827;23;20004;-79
2021/11/28 00:48:43;;;;;;;2.85;1.00;;;9.40;99.90;;;;;;6184015;23;20309;-78
2021/11/28 00:51:55;;;;;;;6.07;1.15;;;9.40;99.90;;;;;;6183787;23;20007;-78
2021/11/28 00:53:57;;;;;;;3.50;2.25;;;9.40;99.90;;;;;;6168597;23;20527;-79
2021/11/28 00:56:23;;;;;;;4.30;1.70;;;9.40;99.90;;;;;;6157873;23;20001;-77
2021/11/28 00:58:48;;;;;;;7.00;1.67;;;9.40;99.90;;;;;;6183929;23;20012;-76
2021/11/28 01:01:18;;;;;;;8.98;6.03;;;9.40;99.90;;;;;;6157487;23;20008;-77
2021/11/28 01:03:44;;;;;;;9.50;6.40;;;9.40;99.90;;;;;;6183969;23;19997;-77
2021/11/28 01:06:10;;;;;;;1.83;1.67;;;9.40;99.90;;;;;;6157299;23;20079;-78
2021/11/28 01:08:36;;;;;;;3.70;1.20;;;9.40;99.90;;;;;;6183920;23;20432;-77
2021/11/28 01:11:02;;;;;;;4.20;1.77;;;9.40;99.90;;;;;;6183752;23;20001;-78
2021/11/28 01:13:28;;;;;;;4.05;1.45;;;9.40;99.90;;;;;;6157332;23;20009;-77
2021/11/28 01:15:53;;;;;;;4.13;1.20;;;9.40;99.90;;;;;;6157019;23;20016;-77
2021/11/28 01:18:19;;;;;;;5.90;1.55;;;9.40;99.90;;;;;;6183765;23;20001;-77
2021/11/28 01:20:45;;;;;;;7.28;4.10;;;9.40;99.90;;;;;;6183518;23;20499;-77
2021/11/28 01:23:11;;;;;;;6.13;2.97;;;9.50;99.90;;;;;;6183808;23;19997;-77
2021/11/28 01:25:36;;;;;;;7.53;1.88;;;9.40;99.90;;;;;;6183476;23;20348;-77
2021/11/28 01:28:02;;;;;;;5.68;3.10;;;9.50;99.90;;;;;;6157337;23;20341;-78
2021/11/28 01:30:30;;;;;;;7.20;1.95;;;9.50;99.90;;;;;;6183616;23;20008;-77
2021/11/28 01:32:56;;;;;;;5.47;1.77;;;9.40;99.90;;;;;;6157261;23;20009;-77
2021/11/28 01:35:22;;;;;;;7.43;2.03;;;9.50;99.90;;;;;;6183345;23;20019;-77
2021/11/28 01:37:47;;;;;;;5.97;1.60;;;9.50;99.90;;;;;;6183547;23;20075;-77
2021/11/28 01:40:19;;;;;;;4.90;2.90;;;9.50;99.90;;;;;;6183675;23;20028;-77
2021/11/28 01:42:54;;;;;;;10.95;4.20;;;9.50;99.90;;;;;;6183716;23;20007;-77
2021/11/28 01:45:26;;;;;;;5.47;2.88;;;9.50;99.90;;;;;;6157198;23;19997;-77
2021/11/28 01:47:54;;;;;;;3.47;1.40;;;9.50;99.90;;;;;;6183610;23;20004;-77
2021/11/28 01:50:22;;;;;;;11.38;3.75;;;9.50;99.90;;;;;;6156247;23;20429;-77
2021/11/28 01:52:48;;;;;;;10.05;3.70;;;9.50;99.90;;;;;;6183592;23;20001;-77
2021/11/28 01:55:19;;;;;;;10.70;3.20;;;9.50;99.90;;;;;;6157007;23;20017;-77
2021/11/28 01:57:45;;;;;;;12.27;2.08;;;9.50;99.90;;;;;;6183006;23;20306;-77
2021/11/28 02:00:14;;;;;;;24.13;14.30;;;9.50;99.90;;;;;;6183424;23;20005;-78
2021/11/28 02:02:43;;;;;;;8.20;2.67;;;9.60;99.90;;;;;;6183309;23;19997;-76
2021/11/28 02:05:09;;;;;;;10.75;4.13;;;9.60;99.90;;;;;;6183068;23;20081;-77
2021/11/28 02:07:36;;;;;;;9.00;2.05;;;9.60;99.90;;;;;;6183309;23;20390;-77
2021/11/28 02:10:04;;;;;;;4.82;1.55;;;9.60;99.90;;;;;;6156906;23;20013;-78
2021/11/28 02:12:30;;;;;;;6.38;1.73;;;9.60;99.90;;;;;;6183356;23;20028;-78
2021/11/28 02:15:00;;;;;;;15.93;2.53;;;9.50;99.90;;;;;;6156906;23;20020;-80
2021/11/28 02:17:26;;;;;;;19.00;3.95;;;9.10;99.90;;;;;;6183935;23;19997;-82
2021/11/28 02:19:53;;;;;;;16.20;4.82;;;8.80;99.90;;;;;;6183538;23;20001;-83
2021/11/28 02:22:19;;;;;;;21.60;5.78;;;8.70;99.90;;;;;;6183814;23;20012;-83
2021/11/28 02:24:45;;;;;;;20.15;5.15;;;8.70;99.90;;;;;;6183598;23;20523;-82
2021/11/28 02:27:12;;;;;;;18.38;5.32;;;8.60;99.90;;;;;;6183189;23;20008;-81
2021/11/28 02:29:40;;;;;;;16.50;7.18;;;8.60;99.90;;;;;;6183512;23;20071;-81
2021/11/28 02:32:06;;;;;;;26.17;7.75;;;8.50;99.90;;;;;;6183464;23;20024;-82
2021/11/28 02:34:32;;;;;;;14.40;6.05;;;8.60;99.90;;;;;;6183001;23;20080;-81
2021/11/28 02:36:58;;;;;;;15.70;5.70;;;8.70;99.90;;;;;;6156845;23;20033;-81
2021/11/28 02:39:24;;;;;;;15.63;5.63;;;8.90;99.90;;;;;;6183237;23;20425;-81
2021/11/28 02:41:50;;;;;;;18.40;6.47;;;8.90;99.90;;;;;;6156732;23;20372;-81
2021/11/28 02:44:16;;;;;;;18.30;7.88;;;8.90;99.90;;;;;;6183223;23;20004;-81
2021/11/28 02:46:43;;;;;;;22.50;8.68;;;8.80;99.90;;;;;;6157190;23;20063;-81
2021/11/28 02:49:09;;;;;;;16.25;8.70;;;8.80;99.90;;;;;;6183298;23;20009;-81
2021/11/28 02:51:36;;;;;;;15.23;6.75;;;8.90;99.90;;;;;;6157133;23;20009;-82
2021/11/28 02:54:04;;;;;;;12.38;5.78;;;9.00;99.90;;;;;;6183145;23;20009;-80
2021/11/28 02:56:29;;;;;;;17.52;6.20;;;9.10;99.90;;;;;;6183627;23;20001;-82
2021/11/28 02:58:55;;;;;;;19.95;8.15;;;9.10;99.90;;;;;;6183046;23;20400;-81
2021/11/28 03:01:22;;;;;;;18.70;5.93;;;9.10;99.90;;;;;;6157144;23;20005;-81
2021/11/28 03:03:50;;;;;;;15.70;6.53;;;9.10;99.90;;;;;;6157086;23;20387;-80
2021/11/28 03:06:17;;;;;;;11.18;5.43;;;9.10;99.90;;;;;;6183048;23;20005;-81
2021/11/28 03:08:43;;;;;;;14.57;6.25;;;9.10;99.90;;;;;;6183375;23;19997;-80
2021/11/28 03:11:12;;;;;;;10.30;4.28;;;9.00;99.90;;;;;;6183015;23;20005;-81
2021/11/28 03:13:43;;;;;;;18.83;5.82;;;9.00;99.90;;;;;;6156701;23;20087;-80
2021/11/28 03:16:19;;;;;;;9.50;4.20;;;9.00;99.90;;;;;;6182564;23;20001;-81
2021/11/28 03:18:46;;;;;;;12.23;4.65;;;9.00;99.90;;;;;;6182602;23;19997;-81
2021/11/28 03:21:16;;;;;;;10.57;3.90;;;9.00;99.90;;;;;;6156310;23;20088;-82
2021/11/28 03:23:44;;;;;;;11.68;3.33;;;9.10;99.90;;;;;;6156068;23;20009;-82
2021/11/28 03:26:29;;;;;;;8.55;3.30;;;9.10;99.90;;;;;;6182636;23;20092;-82
2021/11/28 03:28:59;;;;;;;6.95;2.67;;;9.10;99.90;;;;;;6183124;23;20436;-81
2021/11/28 03:31:28;;;;;;;6.75;3.15;;;9.00;99.90;;;;;;6157059;23;20005;-82
2021/11/28 03:33:54;;;;;;;9.93;3.10;;;9.00;99.90;;;;;;6183117;23;20002;-81
2021/11/28 03:36:23;;;;;;;8.60;3.33;;;9.00;99.90;;;;;;6156529;23;20406;-81
2021/11/28 03:38:50;;;;;;;10.30;2.88;;;9.00;99.90;;;;;;6157705;23;20001;-81
2021/11/28 03:41:18;;;;;;;7.40;2.97;;;9.00;99.90;;;;;;6158497;23;20095;-81
2021/11/28 03:43:45;;;;;;;12.02;3.60;;;9.00;99.90;;;;;;6158377;23;20001;-81
2021/11/28 03:46:11;;;;;;;10.65;3.47;;;9.10;99.90;;;;;;6184811;23;20004;-81
2021/11/28 03:48:37;;;;;;;11.40;3.40;;;9.00;99.90;;;;;;6184755;23;20076;-80
2021/11/28 03:51:04;;;;;;;18.38;3.42;;;9.10;99.90;;;;;;6184491;23;20607;-81
2021/11/28 03:53:30;;;;;;;9.02;2.53;;;9.10;99.90;;;;;;6158493;23;20341;-81
2021/11/28 03:56:00;;;;;;;9.90;2.58;;;9.10;99.90;;;;;;6158287;23;20005;-81
2021/11/28 03:58:25;;;;;;;10.75;2.53;;;9.10;99.90;;;;;;6157891;23;20008;-81
2021/11/28 04:00:51;;;;;;;10.30;2.25;;;9.10;99.90;;;;;;6158188;23;20347;-81
2021/11/28 04:03:17;;;;;;;14.98;2.60;;;9.10;99.90;;;;;;6157994;23;20001;-80
2021/11/28 04:05:43;;;;;;;9.45;2.15;;;9.10;99.90;;;;;;6183900;23;20032;-80
2021/11/28 04:08:08;;;;;;;7.93;2.50;;;9.10;99.90;;;;;;6184010;23;20265;-81
2021/11/28 04:10:34;;;;;;;8.23;2.40;;;9.10;99.90;;;;;;6158081;23;20001;-81
2021/11/28 04:13:00;;;;;;;6.28;2.33;;;9.00;99.90;;;;;;6157991;23;20011;-81
2021/11/28 04:15:26;;;;;;;4.20;1.65;;;9.00;99.90;;;;;;6184237;23;20009;-80
2021/11/28 04:17:52;;;;;;;6.32;2.00;;;9.00;99.90;;;;;;6184235;23;20001;-80
2021/11/28 04:20:17;;;;;;;7.72;2.22;;;9.00;99.90;;;;;;6183907;23;20440;-81
2021/11/28 04:22:43;;;;;;;13.18;2.42;;;9.00;99.90;;;;;;6157714;23;20151;-81
2021/11/28 04:25:11;;;;;;;8.48;1.50;;;9.00;99.90;;;;;;6183844;23;20005;-81
2021/11/28 04:27:37;;;;;;;6.10;1.67;;;8.90;99.90;;;;;;6157351;23;20558;-81
2021/11/28 04:30:05;;;;;;;5.60;1.70;;;8.90;99.90;;;;;;6183848;23;20584;-80
2021/11/28 04:32:31;;;;;;;4.10;1.30;;;9.00;99.90;;;;;;6157365;23;20009;-80
2021/11/28 04:34:57;;;;;;;7.80;1.67;;;8.90;99.90;;;;;;6183093;23;20077;-80
2021/11/28 04:37:23;;;;;;;5.28;1.25;;;8.90;99.90;;;;;;6183250;23;20001;-80
2021/11/28 04:39:49;;;;;;;0.93;0.60;;;8.90;99.90;;;;;;6183237;23;20417;-80
2021/11/28 04:42:15;;;;;;;3.88;0.93;;;8.80;99.90;;;;;;6157066;23;20088;-80
2021/11/28 04:44:40;;;;;;;2.95;0.90;;;8.80;99.90;;;;;;6157117;23;20005;-80
2021/11/28 04:47:06;;;;;;;7.97;1.23;;;8.80;99.90;;;;;;6157570;23;20467;-79
2021/11/28 04:49:32;;;;;;;4.80;1.25;;;8.80;99.90;;;;;;6183374;23;20024;-79
2021/11/28 04:51:58;;;;;;;5.82;1.00;;;8.80;99.90;;;;;;6184188;23;20128;-80
2021/11/28 04:54:24;;;;;;;3.25;1.08;;;8.80;99.90;;;;;;6157757;23;20020;-80
2021/11/28 04:56:50;;;;;;;2.55;0.80;;;8.80;99.90;;;;;;6157680;23;20005;-80
2021/11/28 04:59:16;;;;;;;4.18;0.80;;;8.80;99.90;;;;;;6157384;23;20337;-79
2021/11/28 05:01:42;;;;;;;1.17;0.68;;;8.80;99.90;;;;;;6157783;23;20009;-79
2021/11/28 05:04:10;;;;;;;4.15;0.93;;;8.70;99.90;;;;;;6184014;23;20692;-79
2021/11/28 05:06:36;;;;;;;6.43;1.10;;;8.70;99.90;;;;;;6183569;23;20429;-80
2021/11/28 05:09:03;;;;;;;2.65;0.82;;;8.70;99.90;;;;;;6157426;23;20008;-79
2021/11/28 05:11:29;;;;;;;3.33;0.70;;;8.70;99.90;;;;;;6157732;23;20083;-79
2021/11/28 05:13:54;;;;;;;4.40;0.93;;;8.60;99.90;;;;;;6183636;23;20032;-80
2021/11/28 05:16:21;;;;;;;2.78;0.90;;;8.60;99.90;;;;;;6157684;23;20005;-79
2021/11/28 05:18:46;;;;;;;2.13;0.65;;;8.60;99.90;;;;;;6157472;23;20045;-79
2021/11/28 05:21:12;;;;;;;11.52;0.70;;;8.60;99.90;;;;;;6157181;23;20704;-79
2021/11/28 05:23:38;;;;;;;7.03;0.88;;;8.60;99.90;;;;;;6157410;23;20001;-79
2021/11/28 05:26:04;;;;;;;5.50;1.13;;;8.60;99.90;;;;;;6183441;23;20366;-79
2021/11/28 05:28:29;;;;;;;3.38;0.75;;;8.60;99.90;;;;;;6183780;23;20063;-79
2021/11/28 05:30:55;;;;;;;1.73;0.70;;;8.70;99.90;;;;;;6183738;23;20051;-79
2021/11/28 05:33:21;;;;;;;5.03;0.90;;;8.80;99.90;;;;;;6183610;23;20008;-79
2021/11/28 05:35:47;;;;;;;2.97;0.75;;;8.80;99.90;;;;;;6157090;23;20024;-79
2021/11/28 05:38:12;;;;;;;5.63;0.98;;;8.90;99.90;;;;;;6157233;23;19997;-79
2021/11/28 05:40:38;;;;;;;4.28;1.13;;;8.90;99.90;;;;;;6157416;23;20016;-79
2021/11/28 05:43:04;;;;;;;5.20;1.17;;;8.90;99.90;;;;;;6183629;23;20001;-78
2021/11/28 05:45:30;;;;;;;3.53;0.93;;;9.00;99.90;;;;;;6183564;23;20432;-79
2021/11/28 05:47:56;;;;;;;5.38;1.00;;;9.10;99.90;;;;;;6157121;23;20016;-79
2021/11/28 05:50:25;;;;;;;4.82;0.73;;;9.10;99.90;;;;;;6183375;23;20023;-79
2021/11/28 05:52:51;;;;;;;3.78;0.85;;;9.20;99.90;;;;;;6183520;23;19996;-79
2021/11/28 05:55:17;;;;;;;2.53;0.68;;;9.20;99.90;;;;;;6157078;23;20040;-79
2021/11/28 05:57:44;;;;;;;4.88;0.75;;;9.20;99.90;;;;;;6157166;23;20056;-80
2021/11/28 06:00:12;;;;;;;3.65;0.70;;;9.20;99.90;;;;;;6156954;23;20440;-80
2021/11/28 06:02:39;;;;;;;4.07;0.75;;;9.30;99.90;;;;;;6156828;23;19996;-79
2021/11/28 06:05:05;;;;;;;4.93;0.82;;;9.40;99.90;;;;;;6156585;23;20004;-79
2021/11/28 06:07:31;;;;;;;6.32;0.90;;;9.40;99.90;;;;;;6157044;23;20031;-79
2021/11/28 06:09:57;;;;;;;3.10;0.77;;;9.40;99.90;;;;;;6183443;23;20341;-80
2021/11/28 06:12:23;;;;;;;11.80;3.25;;;9.40;99.90;;;;;;6183219;23;20029;-79
2021/11/28 06:14:48;;;;;;;42.55;18.00;;;9.40;99.90;;;;;;6157005;23;20384;-79
2021/11/28 06:17:14;;;;;;;76.53;31.13;;;9.40;99.90;;;;;;6182731;23;20024;-79
2021/11/28 06:19:40;;;;;;;13.63;5.00;;;9.50;99.90;;;;;;6183149;23;20005;-79
2021/11/28 06:22:08;;;;;;;33.72;21.98;;;9.50;99.90;;;;;;6182989;23;20001;-79
2021/11/28 06:24:35;;;;;;;9.43;5.32;;;9.50;99.90;;;;;;6182925;23;19997;-79
2021/11/28 06:27:01;;;;;;;7.57;2.13;;;9.50;99.90;;;;;;6183181;23;20009;-79
2021/11/28 06:29:27;;;;;;;39.47;21.52;;;9.60;99.90;;;;;;6156855;23;20031;-79
2021/11/28 06:31:52;;;;;;;23.95;14.55;;;9.60;99.90;;;;;;6183457;23;20005;-80
2021/11/28 06:34:18;;;;;;;10.18;2.10;;;9.60;99.90;;;;;;6182799;23;20093;-79
2021/11/28 06:36:44;;;;;;;13.35;4.72;;;9.60;99.90;;;;;;6156414;23;20091;-79
2021/11/28 06:39:10;;;;;;;20.98;12.90;;;9.60;99.90;;;;;;6183147;23;20056;-79
2021/11/28 06:41:35;;;;;;;17.90;10.25;;;9.60;99.90;;;;;;6183228;23;20314;-80
2021/11/28 06:44:01;;;;;;;18.67;6.63;;;9.60;99.90;;;;;;6156789;23;20035;-80
2021/11/28 06:46:27;;;;;;;10.65;4.55;;;9.60;99.90;;;;;;6183398;23;20025;-81
2021/11/28 06:48:53;;;;;;;10.25;1.35;;;9.60;99.90;;;;;;6183011;23;20005;-79
2021/11/28 06:51:18;;;;;;;10.95;2.38;;;9.50;99.90;;;;;;6183092;23;20001;-80
2021/11/28 06:53:44;;;;;;;6.65;1.73;;;9.60;99.90;;;;;;6182996;23;20039;-79
2021/11/28 06:56:10;;;;;;;14.15;2.55;;;9.40;99.90;;;;;;6183077;23;20008;-80
2021/11/28 06:58:35;;;;;;;9.48;2.80;;;9.30;99.90;;;;;;6156842;23;19997;-80
2021/11/28 07:01:02;;;;;;;15.10;4.93;;;9.30;99.90;;;;;;6182741;23;20001;-79
2021/11/28 07:03:28;;;;;;;16.38;6.13;;;9.20;99.90;;;;;;6156495;23;20430;-81
2021/11/28 07:05:54;;;;;;;22.00;7.05;;;9.10;99.90;;;;;;6182473;23;20025;-80
2021/11/28 07:08:20;;;;;;;16.05;8.13;;;9.00;99.90;;;;;;6182835;23;19997;-81
2021/11/28 07:10:46;;;;;;;13.30;6.80;;;9.00;99.90;;;;;;6182992;23;20016;-81
2021/11/28 07:13:12;;;;;;;15.88;6.20;;;8.90;99.90;;;;;;6184434;23;20340;-81
2021/11/28 07:15:38;;;;;;;14.43;7.20;;;9.00;99.90;;;;;;6158273;23;20043;-81
2021/11/28 07:18:04;;;;;;;17.55;8.43;;;9.00;99.90;;;;;;6182618;23;20002;-80
2021/11/28 07:20:31;;;;;;;19.15;8.00;;;9.00;99.90;;;;;;6182856;23;20005;-81
2021/11/28 07:22:58;;;;;;;11.98;7.78;;;9.10;99.90;;;;;;6158883;23;20380;-81
2021/11/28 07:25:25;;;;;;;16.08;8.20;;;9.20;99.90;;;;;;6166438;23;20463;-80
2021/11/28 07:27:51;;;;;;;18.23;10.23;;;9.20;99.90;;;;;;6183007;23;20522;-80
2021/11/28 07:30:17;;;;;;;17.73;7.35;;;9.30;99.90;;;;;;6183258;23;20092;-81
2021/11/28 07:32:43;;;;;;;22.73;9.07;;;9.20;99.90;;;;;;6184829;23;19997;-81
2021/11/28 07:35:09;;;;;;;18.52;8.27;;;9.10;99.90;;;;;;6184390;23;20005;-81
2021/11/28 07:37:35;;;;;;;15.40;7.97;;;9.20;99.90;;;;;;6183385;23;20416;-80
2021/11/28 07:40:00;;;;;;;20.58;8.63;;;9.20;99.90;;;;;;6184828;23;20032;-81
2021/11/28 07:42:26;;;;;;;17.25;9.77;;;9.20;99.90;;;;;;6184791;23;20417;-79
2021/11/28 07:44:52;;;;;;;17.42;7.80;;;9.20;99.90;;;;;;6184604;23;20012;-79
2021/11/28 07:47:18;;;;;;;18.90;7.18;;;9.30;99.90;;;;;;6184816;23;20329;-80
2021/11/28 07:49:45;;;;;;;18.13;6.03;;;9.40;99.90;;;;;;6184647;23;19997;-81
2021/11/28 07:52:10;;;;;;;19.00;7.20;;;9.40;99.90;;;;;;6184319;23;20063;-81
2021/11/28 07:54:36;;;;;;;13.50;6.68;;;9.40;99.90;;;;;;6184654;23;20372;-82
2021/11/28 07:57:02;;;;;;;9.63;5.18;;;9.50;99.90;;;;;;6183249;23;20028;-81
2021/11/28 07:59:33;;;;;;;15.25;7.63;;;9.40;99.90;;;;;;6182897;23;20082;-81
2021/11/28 08:02:00;;;;;;;11.45;6.43;;;9.40;99.90;;;;;;6184390;23;20008;-81
2021/11/28 08:04:26;;;;;;;19.67;10.43;;;9.40;99.90;;;;;;6183037;23;20040;-80
2021/11/28 08:06:51;;;;;;;17.70;8.20;;;9.40;99.90;;;;;;6182763;23;20012;-81
2021/11/28 08:09:17;;;;;;;13.32;6.15;;;9.40;99.90;;;;;;6183167;23;20013;-80
2021/11/28 08:11:43;;;;;;;12.82;5.93;;;9.40;99.90;;;;;;6183738;23;20436;-80
2021/11/28 08:14:08;;;;;;;10.98;6.57;;;9.40;99.90;;;;;;6184590;23;20037;-80
2021/11/28 08:16:34;;;;;;;10.63;6.28;;;9.50;99.90;;;;;;6182962;23;20031;-81
2021/11/28 08:19:00;;;;;;;14.07;5.90;;;9.60;99.90;;;;;;6184823;23;20080;-80
2021/11/28 08:21:26;;;;;;;65.43;45.13;;;9.70;99.90;;;;;;6182787;23;20081;-82
2021/11/28 08:23:57;;;;;;;29.02;14.93;;;9.90;99.90;;;;;;6182567;23;20009;-80
2021/11/28 08:26:23;;;;;;;23.00;10.65;;;9.90;99.90;;;;;;6183831;23;20017;-79
2021/11/28 08:28:49;;;;;;;21.52;11.50;;;10.00;99.90;;;;;;6158005;23;20001;-80
2021/11/28 08:31:15;;;;;;;18.42;8.07;;;10.00;99.90;;;;;;6184859;23;20012;-82
2021/11/28 08:33:41;;;;;;;7.93;4.00;;;10.00;99.90;;;;;;6183897;23;20005;-81
2021/11/28 08:36:06;;;;;;;16.55;4.43;;;10.00;99.90;;;;;;6183097;23;20059;-80
2021/11/28 08:38:32;;;;;;;11.38;4.47;;;10.00;99.90;;;;;;6183746;23;20660;-80
2021/11/28 08:40:59;;;;;;;7.22;4.20;;;10.00;99.90;;;;;;6183860;23;20073;-80
2021/11/28 08:43:24;;;;;;;9.85;3.70;;;10.10;99.90;;;;;;6157823;23;20001;-79
2021/11/28 08:45:51;;;;;;;8.02;4.22;;;10.20;99.90;;;;;;6184201;23;20012;-78
2021/11/28 08:48:17;;;;;;;9.07;4.43;;;10.30;99.90;;;;;;6183787;23;20051;-79
2021/11/28 08:50:44;;;;;;;14.05;4.22;;;10.40;99.90;;;;;;6183905;23;20001;-80
2021/11/28 08:53:10;;;;;;;8.57;4.43;;;10.30;99.90;;;;;;6157858;23;20012;-82
2021/11/28 08:55:37;;;;;;;18.52;7.53;;;10.30;99.90;;;;;;6157587;23;20127;-79
2021/11/28 08:58:03;;;;;;;23.02;14.57;;;10.30;99.90;;;;;;6183606;23;20005;-78
2021/11/28 09:00:29;;;;;;;14.75;9.00;;;10.40;99.90;;;;;;6157770;23;20408;-80
2021/11/28 09:02:56;;;;;;;19.30;8.10;;;10.50;99.90;;;;;;6184299;23;20004;-82
2021/11/28 09:05:22;;;;;;;11.00;7.00;;;10.60;99.90;;;;;;6159246;23;20005;-86
2021/11/28 09:07:49;;;;;;;12.27;7.60;;;10.80;99.90;;;;;;6161259;23;20009;-83
2021/11/28 09:10:16;;;;;;;11.98;6.50;;;10.90;99.90;;;;;;6185598;23;20001;-79
2021/11/28 09:12:43;;;;;;;11.30;6.28;;;11.00;99.90;;;;;;6184647;23;20084;-81
2021/11/28 09:15:09;;;;;;;16.08;9.18;;;11.00;99.90;;;;;;6184526;23;20013;-79
2021/11/28 09:17:36;;;;;;;9.27;6.30;;;11.00;99.90;;;;;;6184231;23;20451;-83
2021/11/28 09:20:06;;;;;;;10.68;5.15;;;10.90;99.90;;;;;;6157148;23;20439;-85
2021/11/28 09:25:14;;;;;;;9.80;5.05;;;10.80;99.90;;;;;;6186309;23;20017;-81
2021/11/28 09:27:51;;;;;;;10.30;4.88;;;10.80;99.90;;;;;;6184099;23;20001;-81
2021/11/28 09:30:19;;;;;;;12.82;5.50;;;10.70;99.90;;;;;;6183549;23;20005;-82
2021/11/28 09:32:46;;;;;;;8.13;5.38;;;10.80;99.90;;;;;;6183749;23;20025;-82
2021/11/28 09:35:12;;;;;;;25.27;16.30;;;10.80;99.90;;;;;;6156412;23;20064;-82
2021/11/28 09:37:38;;;;;;;12.05;7.35;;;10.90;99.90;;;;;;6157000;23;20076;-82
2021/11/28 09:40:05;;;;;;;20.33;9.50;;;10.80;99.90;;;;;;6183724;23;20385;-80
2021/11/28 09:42:37;;;;;;;20.08;8.70;;;10.70;99.90;;;;;;6185548;23;20059;-86
2021/11/28 09:45:03;;;;;;;;;;;10.80;99.90;;;;;;6161056;23;20371;-79
2021/11/28 09:47:31;;;;;;;13.07;6.38;;;10.90;99.90;;;;;;6185633;23;19904;-85
2021/11/28 09:49:57;;;;;;;13.50;5.85;;;10.90;99.90;;;;;;6186876;23;20012;-84
2021/11/28 09:52:24;;;;;;;16.10;4.45;;;10.80;99.90;;;;;;6161229;23;20005;-85
2021/11/28 09:54:56;;;;;;;18.67;4.40;;;10.70;99.90;;;;;;6187947;23;20013;-84
2021/11/28 09:57:22;;;;;;;8.90;4.93;;;10.70;99.90;;;;;;6158346;23;20001;-83
2021/11/28 09:59:51;;;;;;;15.32;4.93;;;10.70;99.90;;;;;;6158362;23;20063;-83
2021/11/28 10:02:22;;;;;;;6.32;3.63;;;10.60;99.90;;;;;;6184191;23;20012;-86
2021/11/28 10:04:49;;;;;;;9.05;3.45;;;10.50;99.90;;;;;;6160275;23;20005;-81
2021/11/28 10:07:16;;;;;;;8.23;2.90;;;10.40;99.90;;;;;;6185226;23;19997;-83
2021/11/28 10:09:42;;;;;;;12.80;3.55;;;10.40;99.90;;;;;;6095768;23;20018;-84
2021/11/28 10:12:20;;;;;;;8.75;3.15;;;10.40;99.90;;;;;;6098735;23;20084;-84
2021/11/28 10:14:52;;;;;;;7.13;3.25;;;10.50;99.90;;;;;;6098371;23;20025;-82
2021/11/28 10:17:21;;;;;;;10.68;3.45;;;10.50;99.90;;;;;;6124484;23;20044;-84
2021/11/28 10:19:47;;;;;;;8.40;3.05;;;10.50;99.90;;;;;;6099232;23;20006;-83
2021/11/28 10:22:15;;;;;;;8.82;2.97;;;10.50;99.90;;;;;;6099100;23;20009;-87
2021/11/28 10:25:04;;;;;;;7.35;2.22;;;10.40;99.90;;;;;;6101325;23;21253;-88
2021/11/28 10:27:32;;;;;;;148.07;54.72;;;10.40;99.90;;;;;;6104376;23;20068;-86
2021/11/28 10:29:59;;;;;;;10.55;3.45;;;10.40;99.90;;;;;;6128902;23;20014;-87
2021/11/28 10:32:25;;;;;;;48.75;20.65;;;10.40;99.90;;;;;;6100345;23;20056;-88
2021/11/28 10:34:51;;;;;;;29.23;15.10;;;10.40;99.90;;;;;;6101870;23;20022;-88
2021/11/28 10:37:20;;;;;;;12.15;6.28;;;10.40;99.90;;;;;;6129460;23;19998;-87
2021/11/28 10:39:54;;;;;;;12.35;8.15;;;10.40;99.90;;;;;;6126386;23;20002;-87
2021/11/28 10:42:24;;;;;;;13.48;5.40;;;10.40;99.90;;;;;;6100132;23;20009;-84
2021/11/28 10:45:01;;;;;;;9.98;6.35;;;10.50;99.90;;;;;;6100812;23;20053;-87
2021/11/28 10:47:51;;;;;;;12.10;7.25;;;10.50;99.90;;;;;;6100250;23;20006;-85
2021/11/28 10:50:25;;;;;;;17.90;9.07;;;10.40;99.90;;;;;;6126559;23;20077;-84
2021/11/28 10:53:05;;;;;;;15.95;3.50;;;10.40;99.90;;;;;;6100357;23;20009;-87
2021/11/28 10:55:39;;;;;;;21.20;10.27;;;10.40;99.90;;;;;;6100282;23;20653;-85
2021/11/28 10:58:18;;;;;;;9.52;4.70;;;10.30;99.90;;;;;;6100082;23;20009;-81
2021/11/28 11:00:50;;;;;;;7.93;2.50;;;10.30;99.90;;;;;;6124550;23;20010;-79
2021/11/28 11:03:20;;;;;;;10.35;3.50;;;10.40;99.90;;;;;;6125579;23;20334;-81
2021/11/28 11:05:48;;;;;;;4.95;2.72;;;10.50;99.90;;;;;;6123787;23;20006;-83
2021/11/28 11:08:17;;;;;;;4.57;2.60;;;10.50;99.90;;;;;;6111629;23;20006;-81
2021/11/28 11:10:50;;;;;;;7.25;2.28;;;10.50;99.90;;;;;;6097062;23;20006;-84
2021/11/28 11:13:19;;;;;;;10.65;2.80;;;10.60;99.90;;;;;;6123890;23;20618;-83
2021/11/28 11:15:51;;;;;;;8.52;3.60;;;10.70;99.90;;;;;;6096728;23;20105;-82
2021/11/28 11:18:19;;;;;;;5.18;2.90;;;10.80;99.90;;;;;;6123461;23;20381;-82
2021/11/28 11:20:49;;;;;;;4.75;2.03;;;10.90;99.90;;;;;;6123442;23;20029;-82
2021/11/28 11:23:39;;;;;;;4.95;2.55;;;11.10;99.90;;;;;;6123303;23;20085;-80
2021/11/28 11:26:22;;;;;;;7.88;4.47;;;11.30;99.90;;;;;;6123390;23;20350;-84
2021/11/28 11:29:02;;;;;;;5.32;3.20;;;11.60;99.90;;;;;;6123759;23;20277;-82
2021/11/28 11:31:28;;;;;;;6.50;3.13;;;11.90;99.90;;;;;;6124194;23;20036;-84
2021/11/28 11:33:54;;;;;;;6.93;2.95;;;12.00;99.90;;;;;;6097487;23;20014;-84
2021/11/28 11:36:20;;;;;;;6.43;3.10;;;12.10;99.90;;;;;;6124078;23;20385;-84
2021/11/28 11:38:47;;;;;;;8.27;2.42;;;12.10;99.90;;;;;;6124112;23;20080;-82
2021/11/28 11:41:13;;;;;;;7.50;3.33;;;12.30;99.90;;;;;;6123817;23;20001;-83
2021/11/28 11:43:40;;;;;;;3.10;2.17;;;12.40;99.90;;;;;;6098008;23;20010;-84
2021/11/28 11:46:10;;;;;;;4.75;2.75;;;12.50;99.90;;;;;;6098392;23;20025;-83
2021/11/28 11:48:35;;;;;;;7.22;3.88;;;12.60;99.90;;;;;;6124318;23;20030;-86
2021/11/28 11:51:02;;;;;;;9.57;7.53;;;12.60;99.90;;;;;;6123664;23;19998;-82
2021/11/28 11:53:28;;;;;;;8.80;3.47;;;12.50;99.90;;;;;;6123598;23;20009;-83
2021/11/28 11:55:54;;;;;;;7.28;3.25;;;12.60;99.90;;;;;;6123423;23;20006;-84
2021/11/28 11:58:43;;;;;;;8.40;2.70;;;12.60;99.90;;;;;;6123919;23;20010;-82
2021/11/28 12:01:17;;;;;;;5.07;2.38;;;12.50;99.90;;;;;;6099404;23;20006;-83
2021/11/28 12:03:53;;;;;;;4.13;2.15;;;12.50;99.90;;;;;;6100004;23;20006;-81
2021/11/28 12:06:44;;;;;;;5.78;3.00;;;12.50;99.90;;;;;;6124998;23;20061;-80
2021/11/28 12:09:27;;;;;;;5.18;2.63;;;12.50;99.90;;;;;;6118788;23;20080;-81
2021/11/28 12:12:00;;;;;;;6.28;2.63;;;12.50;99.90;;;;;;6125372;23;20446;-81
2021/11/28 12:14:27;;;;;;;5.47;3.10;;;12.50;99.90;;;;;;6125175;23;20371;-79
2021/11/28 12:16:53;;;;;;;4.43;2.88;;;12.60;99.90;;;;;;6125608;23;20497;-86
2021/11/28 12:19:41;;;;;;;8.25;3.15;;;12.60;99.90;;;;;;6098881;23;20006;-79
2021/11/28 12:22:36;;;;;;;4.30;2.60;;;12.50;99.90;;;;;;6124716;23;20514;-81
2021/11/28 12:25:38;;;;;;;5.32;2.58;;;12.60;99.90;;;;;;6108608;23;20014;-80
2021/11/28 12:28:23;;;;;;;17.35;9.68;;;12.50;99.90;;;;;;6124440;23;20068;-81
2021/11/28 12:31:18;;;;;;;28.85;13.30;;;12.50;99.90;;;;;;6125060;23;20006;-80
2021/11/28 12:33:51;;;;;;;11.38;7.20;;;12.50;99.90;;;;;;6117894;23;20033;-81
2021/11/28 12:36:45;;;;;;;12.20;5.95;;;12.50;99.90;;;;;;6124709;23;20008;-81
2021/11/28 12:39:35;;;;;;;7.38;3.45;;;12.50;99.90;;;;;;6120208;23;20006;-81
2021/11/28 12:42:07;;;;;;;7.15;3.83;;;12.40;99.90;;;;;;6100613;23;20072;-82
2021/11/28 12:44:58;;;;;;;5.57;3.78;;;12.40;99.90;;;;;;6125879;23;20002;-80
2021/11/28 12:47:29;;;;;;;12.52;3.75;;;12.20;99.90;;;;;;6126046;23;20069;-82
2021/11/28 12:49:58;;;;;;;9.40;3.53;;;12.10;99.90;;;;;;6100205;23;20387;-82
2021/11/28 12:52:24;;;;;;;6.18;2.55;;;11.90;99.90;;;;;;6125157;23;20006;-82
2021/11/28 12:55:08;;;;;;;5.00;2.38;;;11.80;99.90;;;;;;6099207;23;20122;-82
2021/11/28 12:57:38;;;;;;;4.18;2.38;;;11.90;99.90;;;;;;6122879;23;20034;-82